PAL002 RPMD-RPLL
Flight info
| Callsign | PAL002 |
|---|---|
| Flight time | N/A |
| Altitude | 38000 |
| Route | ANKIN3R ANKIN B473 LAIYA LAIYA5R |
| Aircraft | A321/M-SDE3FGHIRWY/LB1 |
Departure
| Time | 2026-05-05 00:41 |
|---|---|
| Airport | Francisco Bangoy International Airport (RPMD) |
Arrival
| Time | N/A |
|---|---|
| Airport | Ninoy Aquino International Airport (RPLL) |
| Time | Latitude | Longitude | Altitude | Speed | Heading |
|---|---|---|---|---|---|
| 2026-05-05 00:26 | 7.12873 | 125.64476 | 104 ft | 0 kts | 319° |
| 2026-05-05 00:32 | 7.12869 | 125.64480 | 104 ft | 2 kts | 319° |
| 2026-05-05 00:32 | 7.12858 | 125.64490 | 104 ft | 2 kts | 319° |
| 2026-05-05 00:32 | 7.12846 | 125.64500 | 104 ft | 2 kts | 319° |
| 2026-05-05 00:33 | 7.12838 | 125.64507 | 104 ft | 0 kts | 319° |
| 2026-05-05 00:33 | 7.12828 | 125.64517 | 104 ft | 2 kts | 296° |
| 2026-05-05 00:33 | 7.12824 | 125.64532 | 104 ft | 2 kts | 274° |
| 2026-05-05 00:33 | 7.12825 | 125.64548 | 104 ft | 2 kts | 250° |
| 2026-05-05 00:34 | 7.12831 | 125.64559 | 104 ft | 0 kts | 231° |
| 2026-05-05 00:34 | 7.12830 | 125.64558 | 104 ft | 3 kts | 232° |
| 2026-05-05 00:34 | 7.12806 | 125.64529 | 104 ft | 4 kts | 229° |
| 2026-05-05 00:34 | 7.12798 | 125.64520 | 104 ft | 0 kts | 229° |
| 2026-05-05 00:36 | 7.12797 | 125.64518 | 104 ft | 1 kts | 229° |
| 2026-05-05 00:37 | 7.12789 | 125.64509 | 104 ft | 2 kts | 229° |
| 2026-05-05 00:37 | 7.12775 | 125.64494 | 104 ft | 3 kts | 229° |
| 2026-05-05 00:37 | 7.12757 | 125.64471 | 104 ft | 4 kts | 229° |
| 2026-05-05 00:37 | 7.12726 | 125.64452 | 104 ft | 5 kts | 197° |
| 2026-05-05 00:38 | 7.12685 | 125.64460 | 104 ft | 6 kts | 147° |
| 2026-05-05 00:38 | 7.12645 | 125.64493 | 104 ft | 7 kts | 140° |
| 2026-05-05 00:38 | 7.12584 | 125.64544 | 104 ft | 16 kts | 149° |
| 2026-05-05 00:38 | 7.12488 | 125.64502 | 104 ft | 16 kts | 226° |
| 2026-05-05 00:39 | 7.12380 | 125.64378 | 104 ft | 29 kts | 228° |
| 2026-05-05 00:39 | 7.12218 | 125.64191 | 104 ft | 38 kts | 228° |
| 2026-05-05 00:39 | 7.12048 | 125.63992 | 104 ft | 35 kts | 229° |
| 2026-05-05 00:39 | 7.11892 | 125.63811 | 104 ft | 32 kts | 230° |
| 2026-05-05 00:40 | 7.11763 | 125.63655 | 104 ft | 21 kts | 244° |
| 2026-05-05 00:40 | 7.11705 | 125.63547 | 104 ft | 11 kts | 190° |
| 2026-05-05 00:40 | 7.11689 | 125.63572 | 104 ft | 5 kts | 54° |
| 2026-05-05 00:40 | 7.11726 | 125.63618 | 104 ft | 11 kts | 50° |
| 2026-05-05 00:41 | 7.11827 | 125.63735 | 104 ft | 57 kts | 48° |
| 2026-05-05 00:41 | 7.12338 | 125.64329 | 106 ft | 162 kts | 48° |
| 2026-05-05 00:41 | 7.13133 | 125.65259 | 1015 ft | 189 kts | 46° |
| 2026-05-05 00:41 | 7.14091 | 125.66173 | 2349 ft | 198 kts | 27° |
| 2026-05-05 00:42 | 7.15445 | 125.66386 | 3578 ft | 208 kts | 350° |
| 2026-05-05 00:42 | 7.16841 | 125.66072 | 4364 ft | 219 kts | 344° |
| 2026-05-05 00:42 | 7.18415 | 125.65675 | 5046 ft | 238 kts | 346° |
| 2026-05-05 00:42 | 7.20118 | 125.65332 | 5715 ft | 257 kts | 348° |
| 2026-05-05 00:43 | 7.21971 | 125.65040 | 6458 ft | 273 kts | 350° |
| 2026-05-05 00:43 | 7.23882 | 125.64788 | 7436 ft | 279 kts | 351° |
| 2026-05-05 00:43 | 7.25803 | 125.64559 | 8431 ft | 282 kts | 351° |
| 2026-05-05 00:43 | 7.27793 | 125.64335 | 9404 ft | 287 kts | 351° |
| 2026-05-05 00:44 | 7.29796 | 125.64115 | 10331 ft | 291 kts | 351° |
| 2026-05-05 00:44 | 7.31792 | 125.63641 | 10984 ft | 301 kts | 331° |
| 2026-05-05 00:44 | 7.33471 | 125.62297 | 11782 ft | 306 kts | 313° |
| 2026-05-05 00:44 | 7.34906 | 125.60725 | 12669 ft | 309 kts | 310° |
| 2026-05-05 00:45 | 7.36351 | 125.59113 | 13501 ft | 314 kts | 311° |
| 2026-05-05 00:45 | 7.37858 | 125.57478 | 14324 ft | 319 kts | 311° |
| 2026-05-05 00:45 | 7.39404 | 125.55840 | 15134 ft | 324 kts | 312° |
| 2026-05-05 00:45 | 7.41001 | 125.54178 | 15935 ft | 330 kts | 312° |
| 2026-05-05 00:46 | 7.42625 | 125.52505 | 16718 ft | 335 kts | 312° |
| 2026-05-05 00:46 | 7.44300 | 125.50790 | 17499 ft | 340 kts | 313° |
| 2026-05-05 00:46 | 7.45965 | 125.49093 | 18249 ft | 345 kts | 313° |
| 2026-05-05 00:46 | 7.47675 | 125.47353 | 18991 ft | 350 kts | 313° |
| 2026-05-05 00:47 | 7.49414 | 125.45585 | 19715 ft | 355 kts | 313° |
| 2026-05-05 00:47 | 7.51172 | 125.43800 | 20418 ft | 359 kts | 313° |
| 2026-05-05 00:47 | 7.52954 | 125.41990 | 21103 ft | 364 kts | 313° |
| 2026-05-05 00:47 | 7.54742 | 125.40174 | 21785 ft | 368 kts | 313° |
| 2026-05-05 00:48 | 7.56576 | 125.38312 | 22487 ft | 371 kts | 313° |
| 2026-05-05 00:48 | 7.58418 | 125.36443 | 23198 ft | 373 kts | 313° |
| 2026-05-05 00:48 | 7.60252 | 125.34579 | 23827 ft | 376 kts | 313° |
| 2026-05-05 00:48 | 7.62115 | 125.32688 | 24427 ft | 380 kts | 313° |
| 2026-05-05 00:49 | 7.64012 | 125.30761 | 25017 ft | 384 kts | 314° |
| 2026-05-05 00:49 | 7.65916 | 125.28828 | 25591 ft | 388 kts | 314° |
| 2026-05-05 00:49 | 7.67833 | 125.26881 | 26152 ft | 391 kts | 314° |
| 2026-05-05 00:49 | 7.69762 | 125.24920 | 26700 ft | 395 kts | 314° |
| 2026-05-05 00:50 | 7.71735 | 125.22916 | 27243 ft | 398 kts | 314° |
| 2026-05-05 00:50 | 7.73701 | 125.20918 | 27768 ft | 402 kts | 314° |
| 2026-05-05 00:50 | 7.75685 | 125.18901 | 28281 ft | 405 kts | 314° |
| 2026-05-05 00:50 | 7.77673 | 125.16882 | 28781 ft | 408 kts | 314° |
| 2026-05-05 00:51 | 7.79693 | 125.14828 | 29268 ft | 411 kts | 314° |
| 2026-05-05 00:51 | 7.81734 | 125.12753 | 29745 ft | 414 kts | 314° |
| 2026-05-05 00:51 | 7.83773 | 125.10679 | 30207 ft | 416 kts | 314° |
| 2026-05-05 00:51 | 7.85829 | 125.08589 | 30657 ft | 419 kts | 314° |
| 2026-05-05 00:52 | 7.87892 | 125.06490 | 31094 ft | 422 kts | 314° |
| 2026-05-05 00:52 | 7.89991 | 125.04356 | 31524 ft | 424 kts | 314° |
| 2026-05-05 00:52 | 7.92090 | 125.02219 | 31943 ft | 427 kts | 315° |
| 2026-05-05 00:52 | 7.94170 | 125.00102 | 32346 ft | 429 kts | 315° |
| 2026-05-05 00:53 | 7.96326 | 124.97969 | 32746 ft | 432 kts | 317° |
| 2026-05-05 00:53 | 7.98614 | 124.95933 | 33151 ft | 434 kts | 320° |
| 2026-05-05 00:53 | 8.00963 | 124.94002 | 33657 ft | 432 kts | 321° |
| 2026-05-05 00:53 | 8.03291 | 124.92114 | 34192 ft | 430 kts | 321° |
| 2026-05-05 00:54 | 8.05627 | 124.90221 | 34710 ft | 428 kts | 321° |
| 2026-05-05 00:54 | 8.07989 | 124.88304 | 35201 ft | 427 kts | 321° |
| 2026-05-05 00:54 | 8.10308 | 124.86419 | 35658 ft | 426 kts | 321° |
| 2026-05-05 00:54 | 8.12632 | 124.84527 | 36103 ft | 425 kts | 321° |
| 2026-05-05 00:55 | 8.14922 | 124.82662 | 36492 ft | 424 kts | 321° |
| 2026-05-05 00:55 | 8.17253 | 124.80763 | 36810 ft | 426 kts | 321° |
| 2026-05-05 00:55 | 8.19583 | 124.78863 | 37093 ft | 428 kts | 321° |
| 2026-05-05 00:55 | 8.21919 | 124.76959 | 37371 ft | 430 kts | 321° |
| 2026-05-05 00:56 | 8.24243 | 124.75063 | 37645 ft | 431 kts | 321° |
| 2026-05-05 00:56 | 8.26614 | 124.73128 | 37882 ft | 433 kts | 321° |
| 2026-05-05 00:56 | 8.28981 | 124.71197 | 37916 ft | 435 kts | 321° |
| 2026-05-05 00:57 | 8.33695 | 124.67349 | 37921 ft | 435 kts | 321° |
| 2026-05-05 00:57 | 8.38445 | 124.63474 | 37922 ft | 435 kts | 321° |
| 2026-05-05 00:58 | 8.43387 | 124.59917 | 37922 ft | 435 kts | 328° |
| 2026-05-05 00:58 | 8.48678 | 124.56803 | 37922 ft | 435 kts | 330° |
| 2026-05-05 00:59 | 8.53964 | 124.53770 | 37922 ft | 435 kts | 330° |
| 2026-05-05 00:59 | 8.59267 | 124.50717 | 37922 ft | 435 kts | 330° |
| 2026-05-05 01:00 | 8.64542 | 124.47674 | 37922 ft | 435 kts | 330° |
| 2026-05-05 01:00 | 8.69827 | 124.44623 | 37922 ft | 435 kts | 330° |
| 2026-05-05 01:01 | 8.75127 | 124.41561 | 37922 ft | 435 kts | 330° |
| 2026-05-05 01:01 | 8.80436 | 124.38493 | 37922 ft | 435 kts | 330° |